Time;durP1;ratioP1;P1;durP2;ratioP2;P2;SDS_P1;SDS_P2;PMS_P1;PMS_P2;Temp;Humidity;BMP_temperature;BMP_pressure;BME280_temperature;BME280_humidity;BME280_pressure;Samples;Min_cycle;Max_cycle;Signal;HPM_P1;HPM_P2
2021/12/12 00:00:08;;;;;;;33.72;21.85;;;;;;;;;;5093112;28;20680;-66
2021/12/12 00:02:55;;;;;;;42.20;20.75;;;;;;;;;;5092876;28;20186;-66
2021/12/12 00:05:23;;;;;;;38.03;20.55;;;;;;;;;;5093649;28;20178;-66
2021/12/12 00:07:50;;;;;;;41.08;22.05;;;;;;;;;;5093078;28;20226;-66
2021/12/12 00:10:20;;;;;;;48.78;20.20;;;;;;;;;;5092756;28;20251;-66
2021/12/12 00:12:49;;;;;;;30.05;19.70;;;;;;;;;;5094418;28;20647;-66
2021/12/12 00:15:17;;;;;;;36.35;21.55;;;;;;;;;;5096313;28;20230;-66
2021/12/12 00:17:46;;;;;;;38.15;21.17;;;;;;;;;;5096336;28;20206;-66
2021/12/12 00:20:14;;;;;;;38.08;22.30;;;;;;;;;;5096527;28;20254;-66
2021/12/12 00:22:42;;;;;;;35.97;19.90;;;;;;;;;;5096536;28;20232;-71
2021/12/12 00:25:10;;;;;;;34.22;20.25;;;;;;;;;;5096648;28;20599;-66
2021/12/12 00:27:38;;;;;;;41.53;19.88;;;;;;;;;;5096041;28;20248;-69
2021/12/12 00:30:06;;;;;;;40.92;19.92;;;;;;;;;;5096677;28;20280;-66
2021/12/12 00:32:36;;;;;;;36.78;19.63;;;;;;;;;;5095886;28;20199;-66
2021/12/12 00:35:06;;;;;;;34.35;17.55;;;;;;;;;;5096031;28;20194;-66
2021/12/12 00:37:34;;;;;;;28.17;18.88;;;;;;;;;;5095997;28;20217;-66
2021/12/12 00:40:05;;;;;;;38.63;19.08;;;;;;;;;;5096571;28;20302;-66
2021/12/12 00:42:35;;;;;;;28.45;16.70;;;;;;;;;;5095870;28;20270;-66
2021/12/12 00:45:05;;;;;;;30.08;18.38;;;;;;;;;;5096087;28;20286;-66
2021/12/12 00:47:32;;;;;;;32.63;17.70;;;;;;;;;;5095835;28;20649;-66
2021/12/12 00:49:59;;;;;;;41.03;16.85;;;;;;;;;;5095677;28;20240;-66
2021/12/12 00:52:29;;;;;;;24.58;14.50;;;;;;;;;;5095641;28;20694;-66
2021/12/12 00:54:56;;;;;;;40.05;16.85;;;;;;;;;;5095805;28;20222;-66
2021/12/12 00:57:23;;;;;;;33.20;16.92;;;;;;;;;;5095906;28;20248;-66
2021/12/12 00:59:51;;;;;;;39.25;16.52;;;;;;;;;;5095499;28;20260;-66
2021/12/12 01:02:21;;;;;;;29.33;16.15;;;;;;;;;;5095824;28;20566;-66
2021/12/12 01:04:51;;;;;;;30.08;17.10;;;;;;;;;;5095500;28;20657;-66
2021/12/12 01:07:21;;;;;;;30.00;16.05;;;;;;;;;;5095397;28;20669;-67
2021/12/12 01:09:51;;;;;;;27.00;15.45;;;;;;;;;;5095522;28;20239;-66
2021/12/12 01:12:21;;;;;;;25.67;13.80;;;;;;;;;;5096299;28;20232;-66
2021/12/12 01:14:51;;;;;;;41.10;15.60;;;;;;;;;;5095290;28;20273;-66
2021/12/12 01:17:24;;;;;;;26.33;14.57;;;;;;;;;;5096442;28;20265;-66
2021/12/12 01:19:54;;;;;;;25.77;14.48;;;;;;;;;;5095188;28;20210;-66
2021/12/12 01:22:25;;;;;;;24.33;14.25;;;;;;;;;;5095465;28;20226;-66
2021/12/12 01:24:55;;;;;;;19.15;12.90;;;;;;;;;;5095517;28;20188;-66
2021/12/12 01:27:22;;;;;;;23.25;13.70;;;;;;;;;;5095336;28;20285;-65
2021/12/12 01:29:50;;;;;;;28.85;14.45;;;;;;;;;;5094955;28;20288;-66
2021/12/12 01:32:25;;;;;;;22.88;14.10;;;;;;;;;;5094853;28;20289;-66
2021/12/12 01:34:53;;;;;;;25.90;13.35;;;;;;;;;;5095665;28;20183;-66
2021/12/12 01:37:37;;;;;;;24.08;12.93;;;;;;;;;;5095166;28;20202;-66
2021/12/12 01:40:08;;;;;;;30.63;13.60;;;;;;;;;;5095366;28;20206;-66
2021/12/12 01:42:38;;;;;;;20.00;11.95;;;;;;;;;;5094549;28;20185;-66
2021/12/12 01:45:08;;;;;;;27.38;13.75;;;;;;;;;;5095097;28;20669;-66
2021/12/12 01:47:37;;;;;;;29.02;13.82;;;;;;;;;;5094381;28;20189;-66
2021/12/12 01:50:07;;;;;;;33.42;13.68;;;;;;;;;;5094588;28;20198;-66
2021/12/12 01:52:35;;;;;;;26.38;12.57;;;;;;;;;;5094356;28;20190;-66
2021/12/12 01:55:13;;;;;;;18.20;10.90;;;;;;;;;;5095288;28;20214;-66
2021/12/12 01:57:42;;;;;;;23.50;11.77;;;;;;;;;;5094542;28;20193;-67
2021/12/12 02:00:12;;;;;;;22.17;11.35;;;;;;;;;;5094141;28;20229;-66
2021/12/12 02:02:40;;;;;;;19.73;11.65;;;;;;;;;;5095285;28;20693;-66
2021/12/12 02:05:10;;;;;;;18.42;11.30;;;;;;;;;;5094191;28;20737;-68
2021/12/12 02:07:39;;;;;;;21.00;11.18;;;;;;;;;;5094207;28;20586;-66
2021/12/12 02:10:08;;;;;;;18.90;9.25;;;;;;;;;;5094091;28;20658;-67
2021/12/12 02:12:36;;;;;;;25.30;11.18;;;;;;;;;;5094268;28;20685;-67
2021/12/12 02:15:07;;;;;;;22.98;9.82;;;;;;;;;;5094037;28;20315;-67
2021/12/12 02:17:40;;;;;;;21.40;10.77;;;;;;;;;;5094438;28;20191;-66
2021/12/12 02:20:15;;;;;;;21.77;9.45;;;;;;;;;;5093848;28;20704;-66
2021/12/12 02:22:57;;;;;;;13.93;9.75;;;;;;;;;;5093877;28;20178;-66
2021/12/12 02:36:41;;;;;;;13.95;9.35;;;;;;;;;;5031182;28;20180;-66
2021/12/12 02:39:15;;;;;;;18.33;10.75;;;;;;;;;;5066740;28;20236;-66
2021/12/12 02:41:43;;;;;;;15.90;8.88;;;;;;;;;;5094125;28;20220;-66
2021/12/12 02:44:11;;;;;;;12.93;8.68;;;;;;;;;;5094248;28;20296;-67
2021/12/12 02:46:40;;;;;;;10.38;7.80;;;;;;;;;;5093763;28;20190;-66
2021/12/12 02:49:23;;;;;;;15.82;7.93;;;;;;;;;;5093890;28;20202;-66
2021/12/12 02:51:51;;;;;;;15.90;8.30;;;;;;;;;;5093411;28;20218;-66
2021/12/12 02:54:20;;;;;;;21.35;8.95;;;;;;;;;;5093836;28;20194;-67
2021/12/12 02:56:48;;;;;;;17.35;7.35;;;;;;;;;;5093225;28;20237;-66
2021/12/12 02:59:17;;;;;;;12.65;7.22;;;;;;;;;;5093041;28;20199;-66
2021/12/12 03:01:45;;;;;;;13.88;7.13;;;;;;;;;;5094308;28;20226;-67
2021/12/12 03:04:13;;;;;;;15.05;8.30;;;;;;;;;;5093534;28;20255;-66
2021/12/12 03:06:41;;;;;;;12.32;7.70;;;;;;;;;;5093540;28;20246;-67
2021/12/12 03:09:10;;;;;;;12.75;6.88;;;;;;;;;;5093829;28;20200;-66
2021/12/12 03:11:38;;;;;;;14.85;7.40;;;;;;;;;;5093091;28;20612;-66
2021/12/12 03:14:06;;;;;;;10.50;6.35;;;;;;;;;;5092863;28;20281;-66
2021/12/12 03:16:34;;;;;;;16.50;6.00;;;;;;;;;;5094177;28;20570;-67
2021/12/12 03:19:01;;;;;;;14.00;6.15;;;;;;;;;;5093231;28;20197;-66
2021/12/12 03:21:32;;;;;;;10.30;6.55;;;;;;;;;;5092817;28;20256;-67
2021/12/12 03:24:00;;;;;;;11.13;6.22;;;;;;;;;;5093445;28;20650;-66
2021/12/12 03:26:28;;;;;;;8.82;6.63;;;;;;;;;;5092865;28;20250;-65
2021/12/12 03:28:57;;;;;;;13.73;6.15;;;;;;;;;;5093220;28;20233;-66
2021/12/12 03:31:28;;;;;;;9.05;6.63;;;;;;;;;;5093110;28;20202;-66
2021/12/12 03:33:56;;;;;;;13.75;6.35;;;;;;;;;;5093960;28;20259;-66
2021/12/12 03:36:23;;;;;;;22.50;7.10;;;;;;;;;;5093192;28;20223;-66
2021/12/12 03:38:52;;;;;;;13.93;6.75;;;;;;;;;;5092757;28;20649;-65
2021/12/12 03:41:21;;;;;;;16.83;6.95;;;;;;;;;;5093286;28;20313;-68
2021/12/12 03:43:51;;;;;;;14.82;7.35;;;;;;;;;;5093205;28;20282;-65
2021/12/12 03:46:20;;;;;;;10.10;5.97;;;;;;;;;;5092641;28;20226;-65
2021/12/12 03:48:47;;;;;;;10.80;6.10;;;;;;;;;;5096612;28;20212;-65
2021/12/12 03:51:16;;;;;;;9.98;6.32;;;;;;;;;;5097183;28;20206;-66
2021/12/12 03:53:43;;;;;;;13.00;6.55;;;;;;;;;;5097381;28;20225;-66
2021/12/12 03:56:12;;;;;;;10.23;6.05;;;;;;;;;;5097320;28;20526;-66
2021/12/12 03:58:40;;;;;;;8.32;5.82;;;;;;;;;;5096818;28;20199;-66
2021/12/12 04:01:10;;;;;;;10.75;5.55;;;;;;;;;;5097027;28;20628;-65
2021/12/12 04:03:39;;;;;;;9.45;5.10;;;;;;;;;;5096408;28;20209;-66
2021/12/12 04:06:08;;;;;;;16.90;6.57;;;;;;;;;;5096362;28;20201;-67
2021/12/12 04:08:36;;;;;;;6.40;4.93;;;;;;;;;;5096310;28;20708;-66
2021/12/12 04:11:05;;;;;;;8.13;5.78;;;;;;;;;;5096223;28;20247;-67
2021/12/12 04:13:32;;;;;;;8.55;5.35;;;;;;;;;;5096233;28;20232;-67
2021/12/12 04:15:59;;;;;;;8.55;5.60;;;;;;;;;;5096325;28;20310;-67
2021/12/12 04:18:28;;;;;;;11.30;6.30;;;;;;;;;;5096087;28;20242;-67
2021/12/12 04:20:57;;;;;;;9.93;6.22;;;;;;;;;;5096394;28;20214;-67
2021/12/12 04:23:27;;;;;;;11.25;6.20;;;;;;;;;;5096080;28;20290;-66
2021/12/12 04:25:54;;;;;;;15.40;7.28;;;;;;;;;;5096331;28;20193;-66
2021/12/12 04:28:21;;;;;;;16.05;5.65;;;;;;;;;;5096413;28;20698;-66
2021/12/12 04:30:49;;;;;;;12.93;5.43;;;;;;;;;;5096005;28;20732;-66
2021/12/12 04:33:16;;;;;;;8.90;5.90;;;;;;;;;;5095896;28;20277;-66
2021/12/12 04:35:43;;;;;;;13.13;5.80;;;;;;;;;;5096004;28;20290;-66
2021/12/12 04:38:12;;;;;;;16.13;6.60;;;;;;;;;;5095736;28;20238;-66
2021/12/12 04:40:39;;;;;;;9.60;6.40;;;;;;;;;;5095903;28;20309;-66
2021/12/12 04:43:07;;;;;;;8.75;7.40;;;;;;;;;;5095883;28;20227;-66
2021/12/12 04:45:42;;;;;;;11.20;5.80;;;;;;;;;;5095988;28;20241;-66
2021/12/12 04:50:58;;;;;;;8.95;6.03;;;;;;;;;;5095733;28;20257;-66
2021/12/12 04:53:31;;;;;;;14.77;6.18;;;;;;;;;;5096229;28;20228;-66
2021/12/12 04:56:01;;;;;;;11.90;6.18;;;;;;;;;;5095908;28;20211;-66
2021/12/12 04:58:35;;;;;;;11.13;6.30;;;;;;;;;;5095321;28;20635;-66
2021/12/12 05:01:06;;;;;;;9.90;5.57;;;;;;;;;;5095284;28;20243;-66
2021/12/12 05:03:48;;;;;;;12.20;5.43;;;;;;;;;;5096006;28;20215;-65
2021/12/12 05:06:17;;;;;;;15.93;5.88;;;;;;;;;;5095241;28;20190;-65
2021/12/12 05:08:50;;;;;;;13.43;6.38;;;;;;;;;;5095145;28;20234;-66
2021/12/12 05:11:21;;;;;;;14.43;6.20;;;;;;;;;;5096292;28;20694;-66
2021/12/12 05:13:51;;;;;;;8.23;5.90;;;;;;;;;;5096133;28;20242;-65
2021/12/12 05:16:22;;;;;;;16.92;6.40;;;;;;;;;;5095628;28;20228;-65
2021/12/12 05:18:51;;;;;;;14.90;6.00;;;;;;;;;;5094588;28;20194;-66
2021/12/12 05:21:20;;;;;;;16.50;6.50;;;;;;;;;;5093679;28;20210;-66
2021/12/12 05:23:50;;;;;;;13.25;5.70;;;;;;;;;;5093833;28;20226;-66
2021/12/12 05:26:20;;;;;;;7.63;5.63;;;;;;;;;;5093036;28;20285;-66
2021/12/12 05:28:49;;;;;;;19.48;6.43;;;;;;;;;;5094209;28;20214;-66
2021/12/12 05:31:18;;;;;;;10.73;6.55;;;;;;;;;;5094122;28;20207;-65
2021/12/12 05:33:45;;;;;;;10.60;5.97;;;;;;;;;;5094089;28;20293;-66
2021/12/12 05:36:14;;;;;;;10.63;5.25;;;;;;;;;;5094336;28;20614;-66
2021/12/12 05:38:44;;;;;;;13.85;5.47;;;;;;;;;;5094294;28;20238;-66
2021/12/12 05:41:13;;;;;;;13.85;6.00;;;;;;;;;;5093626;28;20228;-66
2021/12/12 05:43:41;;;;;;;13.90;6.43;;;;;;;;;;5094660;28;20237;-66
2021/12/12 05:46:09;;;;;;;7.13;5.20;;;;;;;;;;5093959;28;20349;-66
2021/12/12 05:48:37;;;;;;;19.45;5.45;;;;;;;;;;5094058;28;20192;-66
2021/12/12 05:51:04;;;;;;;7.85;4.60;;;;;;;;;;5094809;28;20214;-66
2021/12/12 05:53:32;;;;;;;9.23;5.63;;;;;;;;;;5093975;28;20303;-66
2021/12/12 05:55:59;;;;;;;10.60;5.03;;;;;;;;;;5093950;28;20285;-65
2021/12/12 05:58:28;;;;;;;12.30;4.80;;;;;;;;;;5094468;28;20227;-67
2021/12/12 06:00:57;;;;;;;14.77;5.40;;;;;;;;;;5094435;28;20217;-66
2021/12/12 06:03:26;;;;;;;6.47;4.85;;;;;;;;;;5094104;28;20201;-67
2021/12/12 06:05:55;;;;;;;10.80;4.95;;;;;;;;;;5094297;28;20228;-66
2021/12/12 06:08:22;;;;;;;9.35;5.35;;;;;;;;;;5094367;28;20194;-66
2021/12/12 06:10:50;;;;;;;12.15;6.22;;;;;;;;;;5093565;28;20212;-65
2021/12/12 06:13:19;;;;;;;13.18;5.28;;;;;;;;;;5094543;28;20234;-65
2021/12/12 06:15:50;;;;;;;16.05;5.10;;;;;;;;;;5094045;28;20309;-66
2021/12/12 06:18:18;;;;;;;14.13;5.60;;;;;;;;;;5094535;28;20767;-66
2021/12/12 06:20:46;;;;;;;13.32;5.35;;;;;;;;;;5093554;28;20308;-66
2021/12/12 06:23:15;;;;;;;7.82;5.30;;;;;;;;;;5093850;28;20282;-66
2021/12/12 06:25:43;;;;;;;20.30;5.20;;;;;;;;;;5093110;28;20733;-67
2021/12/12 06:28:11;;;;;;;9.05;4.97;;;;;;;;;;5093669;28;20343;-66
2021/12/12 06:30:38;;;;;;;11.27;5.25;;;;;;;;;;5094212;28;20244;-67
2021/12/12 06:33:07;;;;;;;13.73;5.53;;;;;;;;;;5093762;28;20256;-66
2021/12/12 06:35:34;;;;;;;7.63;4.47;;;;;;;;;;5093471;28;20250;-66
2021/12/12 06:38:03;;;;;;;8.60;5.18;;;;;;;;;;5093517;28;20285;-66
2021/12/12 06:40:30;;;;;;;13.40;5.15;;;;;;;;;;5093235;28;20304;-67
2021/12/12 06:43:00;;;;;;;8.40;6.38;;;;;;;;;;5093964;28;20282;-66
2021/12/12 06:45:27;;;;;;;10.45;5.65;;;;;;;;;;5093028;28;20236;-66
2021/12/12 06:47:55;;;;;;;12.80;6.35;;;;;;;;;;5093259;28;20206;-66
2021/12/12 06:50:25;;;;;;;14.38;6.43;;;;;;;;;;5094106;28;20225;-65
2021/12/12 06:52:53;;;;;;;17.13;6.38;;;;;;;;;;5093779;28;20264;-66
2021/12/12 06:55:20;;;;;;;15.38;6.47;;;;;;;;;;5092963;28;20281;-65
2021/12/12 06:57:48;;;;;;;10.70;6.32;;;;;;;;;;5093157;28;20804;-66
2021/12/12 07:00:17;;;;;;;9.00;6.03;;;;;;;;;;5093251;28;20196;-66
2021/12/12 07:02:45;;;;;;;9.30;6.38;;;;;;;;;;5093407;28;20664;-66
2021/12/12 07:05:13;;;;;;;12.38;5.65;;;;;;;;;;5092864;28;20713;-66
2021/12/12 07:07:42;;;;;;;15.73;6.53;;;;;;;;;;5093656;28;20190;-66
2021/12/12 07:10:10;;;;;;;6.82;5.35;;;;;;;;;;5093676;28;20741;-65
2021/12/12 07:12:39;;;;;;;15.52;6.95;;;;;;;;;;5093283;28;20200;-65
2021/12/12 07:15:09;;;;;;;11.63;6.32;;;;;;;;;;5093264;28;20231;-65
2021/12/12 07:17:37;;;;;;;13.20;7.20;;;;;;;;;;5093564;28;20186;-65
2021/12/12 07:20:05;;;;;;;20.33;7.90;;;;;;;;;;5092921;28;20205;-65
2021/12/12 07:22:32;;;;;;;13.02;7.13;;;;;;;;;;5095977;28;20300;-65
2021/12/12 07:25:02;;;;;;;16.38;7.10;;;;;;;;;;5096797;28;20224;-65
2021/12/12 07:27:30;;;;;;;12.50;8.30;;;;;;;;;;5097317;28;20265;-65
2021/12/12 07:29:57;;;;;;;8.50;7.10;;;;;;;;;;5097605;28;20190;-66
2021/12/12 07:32:26;;;;;;;16.80;7.55;;;;;;;;;;5097550;28;20203;-66
2021/12/12 07:34:54;;;;;;;12.65;7.88;;;;;;;;;;5097133;28;20195;-66
2021/12/12 07:37:21;;;;;;;14.93;8.27;;;;;;;;;;5097747;28;20200;-65
2021/12/12 07:39:50;;;;;;;10.68;8.10;;;;;;;;;;5096576;28;20286;-67
2021/12/12 07:42:19;;;;;;;12.32;8.23;;;;;;;;;;5097197;28;20562;-66
2021/12/12 07:44:47;;;;;;;12.48;6.95;;;;;;;;;;5096831;28;20259;-67
2021/12/12 07:47:16;;;;;;;9.73;7.93;;;;;;;;;;5097090;28;20227;-65
2021/12/12 07:49:45;;;;;;;11.35;7.63;;;;;;;;;;5097330;28;20194;-65
2021/12/12 07:52:14;;;;;;;14.30;8.38;;;;;;;;;;5096945;28;20201;-66
2021/12/12 07:54:41;;;;;;;9.18;7.28;;;;;;;;;;5097173;28;20244;-66
2021/12/12 07:57:09;;;;;;;14.25;7.85;;;;;;;;;;5097073;28;20236;-67
2021/12/12 07:59:40;;;;;;;11.30;7.90;;;;;;;;;;5096723;28;20245;-68
2021/12/12 08:02:08;;;;;;;9.60;7.93;;;;;;;;;;5096681;28;20241;-67
2021/12/12 08:04:35;;;;;;;12.13;9.25;;;;;;;;;;5096934;28;20336;-66
2021/12/12 08:07:03;;;;;;;10.25;8.35;;;;;;;;;;5096957;28;20278;-65
2021/12/12 08:09:31;;;;;;;11.30;8.82;;;;;;;;;;5097037;28;20277;-65
2021/12/12 08:11:58;;;;;;;15.30;9.90;;;;;;;;;;5096800;28;20226;-65
2021/12/12 08:14:27;;;;;;;15.70;10.00;;;;;;;;;;5096445;28;20300;-65
2021/12/12 08:16:56;;;;;;;13.02;9.45;;;;;;;;;;5096342;28;20231;-64
2021/12/12 08:19:24;;;;;;;15.95;10.25;;;;;;;;;;5096670;28;20235;-65
2021/12/12 08:21:54;;;;;;;14.13;9.57;;;;;;;;;;5096128;28;20213;-65
2021/12/12 08:24:22;;;;;;;14.50;9.40;;;;;;;;;;5096574;28;20261;-67
2021/12/12 08:26:49;;;;;;;13.13;9.50;;;;;;;;;;5096558;28;20246;-65
2021/12/12 08:29:17;;;;;;;10.88;9.02;;;;;;;;;;5096318;28;20294;-65
2021/12/12 08:31:46;;;;;;;10.38;8.35;;;;;;;;;;5096357;28;20668;-66
2021/12/12 08:34:15;;;;;;;11.77;9.38;;;;;;;;;;5095584;28;20198;-65
2021/12/12 08:36:45;;;;;;;11.20;9.65;;;;;;;;;;5096046;28;20830;-65
2021/12/12 08:39:13;;;;;;;13.85;10.27;;;;;;;;;;5096261;28;20288;-65
2021/12/12 08:41:41;;;;;;;15.93;9.82;;;;;;;;;;5095927;28;20685;-65
2021/12/12 08:44:09;;;;;;;16.50;10.57;;;;;;;;;;5095823;28;20289;-65
2021/12/12 08:46:38;;;;;;;12.35;9.63;;;;;;;;;;5095915;28;20202;-66
2021/12/12 08:49:06;;;;;;;11.63;9.55;;;;;;;;;;5096571;28;20248;-65
2021/12/12 08:51:36;;;;;;;15.05;10.15;;;;;;;;;;5096161;28;20263;-65
2021/12/12 08:54:13;;;;;;;15.10;9.73;;;;;;;;;;5096136;28;20222;-65
2021/12/12 08:56:44;;;;;;;9.95;8.70;;;;;;;;;;5096413;28;20239;-66
2021/12/12 08:59:13;;;;;;;13.43;10.55;;;;;;;;;;5095757;28;20648;-66
2021/12/12 09:01:41;;;;;;;11.98;10.75;;;;;;;;;;5095569;28;20220;-65
2021/12/12 09:04:09;;;;;;;14.32;10.45;;;;;;;;;;5095797;28;20242;-66
2021/12/12 09:06:41;;;;;;;13.05;10.55;;;;;;;;;;5095748;28;20230;-65
2021/12/12 09:09:10;;;;;;;12.07;10.40;;;;;;;;;;5096372;28;20182;-66
2021/12/12 09:11:39;;;;;;;10.63;8.98;;;;;;;;;;5095708;28;20249;-66
2021/12/12 09:14:11;;;;;;;12.57;9.43;;;;;;;;;;5095190;28;20229;-66
2021/12/12 09:16:40;;;;;;;10.85;9.73;;;;;;;;;;5095334;28;20260;-66
2021/12/12 09:19:11;;;;;;;14.90;11.13;;;;;;;;;;5095246;28;20256;-67
2021/12/12 09:21:50;;;;;;;11.60;9.88;;;;;;;;;;5095285;28;20228;-66
2021/12/12 09:24:24;;;;;;;11.98;10.32;;;;;;;;;;5095256;28;20182;-66
2021/12/12 09:26:53;;;;;;;13.10;9.75;;;;;;;;;;5095571;28;20194;-66
2021/12/12 09:29:24;;;;;;;9.43;8.40;;;;;;;;;;5095034;28;20715;-67
2021/12/12 09:31:53;;;;;;;13.32;10.02;;;;;;;;;;5095158;28;20242;-66
2021/12/12 09:34:22;;;;;;;9.82;8.77;;;;;;;;;;5095580;28;20257;-66
2021/12/12 09:36:54;;;;;;;13.18;11.02;;;;;;;;;;5095694;28;20641;-66
2021/12/12 09:39:25;;;;;;;14.90;11.77;;;;;;;;;;5095409;28;20188;-65
2021/12/12 09:42:01;;;;;;;14.30;12.50;;;;;;;;;;5095128;28;20217;-66
2021/12/12 09:44:50;;;;;;;10.15;8.98;;;;;;;;;;5093725;28;20198;-66
2021/12/12 09:47:58;;;;;;;12.70;11.43;;;;;;;;;;5094437;28;20282;-65
2021/12/12 09:53:32;;;;;;;12.43;11.15;;;;;;;;;;5094560;28;20547;-68
2021/12/12 09:56:02;;;;;;;11.38;9.95;;;;;;;;;;5094932;28;20190;-66
2021/12/12 09:58:33;;;;;;;12.57;11.27;;;;;;;;;;5094524;28;20253;-66
2021/12/12 10:01:03;;;;;;;12.23;10.50;;;;;;;;;;5094429;28;20184;-67
2021/12/12 10:03:35;;;;;;;11.75;10.40;;;;;;;;;;5094911;28;20203;-66
2021/12/12 10:06:08;;;;;;;14.18;10.80;;;;;;;;;;5094644;28;20198;-66
2021/12/12 10:08:50;;;;;;;12.77;10.18;;;;;;;;;;5094960;28;20563;-66
2021/12/12 10:11:20;;;;;;;10.30;8.45;;;;;;;;;;5094365;28;20682;-66
2021/12/12 10:13:49;;;;;;;14.05;10.10;;;;;;;;;;5094226;28;20249;-66
2021/12/12 10:16:21;;;;;;;13.20;10.60;;;;;;;;;;5095034;28;20318;-65
2021/12/12 10:18:55;;;;;;;9.18;6.85;;;;;;;;;;5094753;28;20222;-66
2021/12/12 10:21:27;;;;;;;10.98;9.95;;;;;;;;;;5094091;28;20183;-67
2021/12/12 10:24:04;;;;;;;9.00;8.23;;;;;;;;;;5094272;28;20222;-66
2021/12/12 10:26:35;;;;;;;10.18;9.20;;;;;;;;;;5095229;28;20207;-66
2021/12/12 10:29:08;;;;;;;10.45;9.35;;;;;;;;;;5094526;28;20270;-66
2021/12/12 10:31:39;;;;;;;11.75;10.70;;;;;;;;;;5094734;28;20229;-67
2021/12/12 10:34:09;;;;;;;8.13;7.32;;;;;;;;;;5094575;28;20336;-67
2021/12/12 10:36:37;;;;;;;10.55;9.52;;;;;;;;;;5094701;28;20184;-66
2021/12/12 10:39:09;;;;;;;11.32;10.23;;;;;;;;;;5093798;28;20289;-66
2021/12/12 10:41:38;;;;;;;9.18;8.30;;;;;;;;;;5093657;28;20188;-66
2021/12/12 10:44:08;;;;;;;9.80;8.85;;;;;;;;;;5093780;28;20195;-66
2021/12/12 10:46:40;;;;;;;9.38;8.43;;;;;;;;;;5094683;28;20195;-66
2021/12/12 10:49:12;;;;;;;10.15;9.25;;;;;;;;;;5094811;28;20192;-65
2021/12/12 10:51:42;;;;;;;8.70;7.90;;;;;;;;;;5094437;28;20188;-66
2021/12/12 10:54:15;;;;;;;9.35;8.45;;;;;;;;;;5094141;28;20202;-66
2021/12/12 10:56:44;;;;;;;10.55;9.52;;;;;;;;;;5094575;28;20610;-66
2021/12/12 10:59:16;;;;;;;10.98;8.70;;;;;;;;;;5094303;28;20245;-65
2021/12/12 11:01:45;;;;;;;10.98;9.95;;;;;;;;;;5093987;28;20211;-66
2021/12/12 11:04:15;;;;;;;11.55;9.85;;;;;;;;;;5093627;28;20279;-66
2021/12/12 11:06:48;;;;;;;10.20;9.25;;;;;;;;;;5093572;28;20205;-66
2021/12/12 11:09:21;;;;;;;10.60;9.05;;;;;;;;;;5093713;28;20672;-66
2021/12/12 11:11:51;;;;;;;12.75;9.95;;;;;;;;;;5093310;28;20189;-66
2021/12/12 11:14:21;;;;;;;13.18;11.85;;;;;;;;;;5092482;28;20205;-66
2021/12/12 11:16:51;;;;;;;11.02;10.00;;;;;;;;;;5093348;28;20220;-66
2021/12/12 11:19:24;;;;;;;11.02;9.52;;;;;;;;;;5093295;28;20213;-65
2021/12/12 11:21:53;;;;;;;10.10;9.07;;;;;;;;;;5092738;28;20273;-66
2021/12/12 11:24:24;;;;;;;11.18;10.13;;;;;;;;;;5092782;28;20283;-66
2021/12/12 11:26:58;;;;;;;12.40;11.10;;;;;;;;;;5093611;28;20619;-66
2021/12/12 11:29:31;;;;;;;13.10;9.15;;;;;;;;;;5092929;28;20224;-66
2021/12/12 11:32:11;;;;;;;13.80;10.55;;;;;;;;;;5092512;28;20185;-66
2021/12/12 11:34:43;;;;;;;12.43;11.15;;;;;;;;;;5093569;28;20216;-66
2021/12/12 11:37:15;;;;;;;12.50;10.30;;;;;;;;;;5093212;28;20185;-66
2021/12/12 11:39:58;;;;;;;12.18;10.98;;;;;;;;;;5093367;28;20188;-65
2021/12/12 11:42:36;;;;;;;13.35;12.05;;;;;;;;;;5093013;28;20207;-65
2021/12/12 11:45:10;;;;;;;14.55;11.52;;;;;;;;;;5092754;28;20248;-65
2021/12/12 11:47:46;;;;;;;13.02;11.15;;;;;;;;;;5092765;28;20183;-65
2021/12/12 11:50:17;;;;;;;12.63;11.35;;;;;;;;;;5092917;28;20238;-65
2021/12/12 11:52:47;;;;;;;15.88;12.68;;;;;;;;;;5092952;28;20187;-66
2021/12/12 11:55:20;;;;;;;14.85;12.15;;;;;;;;;;5093057;28;20246;-66
2021/12/12 11:57:57;;;;;;;16.27;12.98;;;;;;;;;;5092968;28;20669;-66
2021/12/12 12:00:27;;;;;;;12.95;11.65;;;;;;;;;;5092897;28;20195;-66
2021/12/12 12:03:10;;;;;;;16.92;13.50;;;;;;;;;;5092500;28;20204;-66
2021/12/12 12:05:40;;;;;;;14.07;12.60;;;;;;;;;;5092572;28;20218;-66
2021/12/12 12:08:14;;;;;;;14.48;12.77;;;;;;;;;;5092960;28;20189;-66
2021/12/12 12:10:47;;;;;;;14.40;12.90;;;;;;;;;;5096999;28;20184;-66
2021/12/12 12:13:23;;;;;;;16.80;13.98;;;;;;;;;;5096185;28;20185;-66
2021/12/12 12:15:54;;;;;;;15.48;13.95;;;;;;;;;;5096926;28;20258;-68
2021/12/12 12:18:27;;;;;;;15.05;13.57;;;;;;;;;;5097189;28;20196;-66
2021/12/12 12:20:57;;;;;;;18.67;15.95;;;;;;;;;;5096273;28;20185;-66
2021/12/12 12:23:41;;;;;;;16.38;14.68;;;;;;;;;;5096391;28;20298;-66
2021/12/12 12:29:08;;;;;;;17.13;14.88;;;;;;;;;;5080137;28;20235;-66
2021/12/12 12:31:54;;;;;;;17.52;15.32;;;;;;;;;;5095964;28;20189;-66
2021/12/12 12:34:45;;;;;;;19.55;16.80;;;;;;;;;;5096177;28;20231;-65
2021/12/12 12:37:31;;;;;;;17.52;15.73;;;;;;;;;;5096016;28;20242;-66
2021/12/12 12:40:13;;;;;;;25.40;17.20;;;;;;;;;;5095892;28;20195;-66
2021/12/12 12:42:59;;;;;;;18.23;15.30;;;;;;;;;;5072620;28;20247;-66
2021/12/12 12:45:44;;;;;;;20.10;16.58;;;;;;;;;;5095805;28;20249;-66
2021/12/12 12:48:31;;;;;;;19.30;14.55;;;;;;;;;;5095558;28;20248;-66
2021/12/12 12:51:16;;;;;;;20.73;17.92;;;;;;;;;;5095570;28;20253;-66
2021/12/12 12:53:58;;;;;;;19.48;16.45;;;;;;;;;;5095726;28;20245;-66
2021/12/12 12:56:46;;;;;;;25.63;15.95;;;;;;;;;;5083439;28;20241;-66
2021/12/12 12:59:25;;;;;;;24.67;14.82;;;;;;;;;;5078422;28;20195;-66
2021/12/12 13:01:58;;;;;;;21.67;15.30;;;;;;;;;;5095332;28;20241;-66
2021/12/12 13:04:28;;;;;;;16.55;14.95;;;;;;;;;;5095557;28;20214;-66
2021/12/12 13:07:13;;;;;;;37.10;20.55;;;;;;;;;;5095630;28;20246;-67
2021/12/12 13:09:44;;;;;;;19.33;14.85;;;;;;;;;;5095637;28;20654;-66
2021/12/12 13:12:41;;;;;;;20.35;16.48;;;;;;;;;;5095597;28;20181;-66
2021/12/12 13:15:13;;;;;;;19.05;15.27;;;;;;;;;;5033069;28;20237;-66
2021/12/12 13:17:50;;;;;;;17.73;15.25;;;;;;;;;;5083427;28;20225;-66
2021/12/12 13:20:32;;;;;;;15.88;13.55;;;;;;;;;;5095192;28;20259;-68
2021/12/12 13:23:08;;;;;;;18.60;15.32;;;;;;;;;;5093177;28;20223;-66
2021/12/12 13:25:37;;;;;;;23.08;17.73;;;;;;;;;;5096477;28;20189;-66
2021/12/12 13:28:16;;;;;;;23.83;14.15;;;;;;;;;;5096289;28;20580;-67
2021/12/12 13:30:47;;;;;;;19.05;17.05;;;;;;;;;;5095184;28;20184;-66
2021/12/12 13:33:23;;;;;;;21.63;19.00;;;;;;;;;;5095808;28;20523;-67
2021/12/12 13:36:02;;;;;;;21.13;17.20;;;;;;;;;;5095060;28;20275;-66
2021/12/12 13:38:40;;;;;;;21.05;17.75;;;;;;;;;;5095319;28;20185;-66
2021/12/12 13:41:08;;;;;;;18.08;14.98;;;;;;;;;;5094969;28;20231;-67
2021/12/12 13:43:37;;;;;;;20.65;16.35;;;;;;;;;;5094801;28;20272;-66
2021/12/12 13:46:09;;;;;;;23.23;19.00;;;;;;;;;;5094751;28;20282;-67
2021/12/12 13:48:40;;;;;;;28.30;16.88;;;;;;;;;;5095101;28;20189;-66
2021/12/12 13:51:16;;;;;;;23.63;16.98;;;;;;;;;;5095301;28;20215;-66
2021/12/12 13:53:58;;;;;;;20.52;18.27;;;;;;;;;;5094697;28;20654;-66
2021/12/12 13:56:27;;;;;;;21.33;17.90;;;;;;;;;;5095245;28;20220;-67
2021/12/12 13:58:59;;;;;;;21.20;16.70;;;;;;;;;;5094910;28;20229;-66
2021/12/12 14:01:30;;;;;;;21.85;16.25;;;;;;;;;;5095446;28;20190;-67
2021/12/12 14:04:00;;;;;;;20.95;15.10;;;;;;;;;;5094392;28;20247;-66
2021/12/12 14:06:29;;;;;;;17.90;12.90;;;;;;;;;;5094309;28;20216;-66
2021/12/12 14:09:00;;;;;;;24.30;16.88;;;;;;;;;;5094285;28;20654;-66
2021/12/12 14:11:29;;;;;;;13.32;11.63;;;;;;;;;;5094704;28;20185;-66
2021/12/12 14:13:57;;;;;;;19.33;13.70;;;;;;;;;;5094199;28;20750;-66
2021/12/12 14:16:28;;;;;;;18.70;14.65;;;;;;;;;;5094546;28;20750;-66
2021/12/12 14:19:01;;;;;;;22.85;18.20;;;;;;;;;;5094625;28;20234;-66
2021/12/12 14:21:29;;;;;;;20.80;17.10;;;;;;;;;;5094412;28;20288;-66
2021/12/12 14:23:57;;;;;;;23.65;18.17;;;;;;;;;;5094329;28;20313;-66
2021/12/12 14:26:28;;;;;;;24.92;20.25;;;;;;;;;;5094071;28;20200;-66
2021/12/12 14:28:58;;;;;;;23.02;18.55;;;;;;;;;;5094463;28;20217;-65
2021/12/12 14:31:27;;;;;;;20.08;16.75;;;;;;;;;;5093994;28;20226;-66
2021/12/12 14:33:57;;;;;;;27.77;17.95;;;;;;;;;;5092864;28;20239;-66
2021/12/12 14:36:26;;;;;;;27.13;20.98;;;;;;;;;;5093196;28;20249;-66
2021/12/12 14:38:54;;;;;;;25.60;19.05;;;;;;;;;;5093352;28;20235;-66
2021/12/12 14:41:32;;;;;;;26.77;19.80;;;;;;;;;;5093292;28;20195;-65
2021/12/12 14:44:00;;;;;;;26.10;19.27;;;;;;;;;;5093184;28;20209;-66
2021/12/12 14:46:30;;;;;;;25.83;20.80;;;;;;;;;;5093538;28;20201;-65
2021/12/12 14:48:58;;;;;;;34.90;22.08;;;;;;;;;;5093474;28;20291;-65
2021/12/12 14:51:27;;;;;;;25.65;19.60;;;;;;;;;;5093170;28;20201;-65
2021/12/12 14:53:56;;;;;;;29.75;23.38;;;;;;;;;;5093727;28;20244;-66
2021/12/12 14:56:29;;;;;;;19.75;16.40;;;;;;;;;;5094204;28;20197;-66
2021/12/12 14:58:58;;;;;;;22.77;20.13;;;;;;;;;;5093511;28;20238;-66
2021/12/12 15:01:28;;;;;;;28.23;19.52;;;;;;;;;;5093476;28;20612;-66
2021/12/12 15:03:57;;;;;;;29.98;20.27;;;;;;;;;;5092848;28;20679;-65
2021/12/12 15:06:27;;;;;;;24.45;18.35;;;;;;;;;;5093116;28;20197;-66